createdAt,value
2022-08-12T00:07:18.937Z,13.51
2022-08-12T00:17:44.177Z,13.32
2022-08-12T00:28:09.598Z,13.22
2022-08-12T00:38:34.899Z,13.24
2022-08-12T00:48:43.179Z,13.16
2022-08-12T00:58:52.705Z,13.05
2022-08-12T01:09:16.427Z,13.10
2022-08-12T01:19:22.125Z,13.24
2022-08-12T01:29:32.832Z,13.06
2022-08-12T01:40:32.067Z,12.83
2022-08-12T01:50:16.035Z,12.66
2022-08-12T02:00:35.541Z,12.57
2022-08-12T02:11:07.420Z,12.70
2022-08-12T02:21:27.102Z,12.63
2022-08-12T02:31:35.050Z,12.53
2022-08-12T02:41:47.636Z,12.53
2022-08-12T02:51:55.280Z,12.64
2022-08-12T03:02:05.035Z,12.46
2022-08-12T03:12:16.332Z,12.30
2022-08-12T03:22:31.581Z,12.28
2022-08-12T03:32:41.663Z,12.34
2022-08-12T03:43:08.501Z,12.53
2022-08-12T03:53:43.728Z,12.60
2022-08-12T04:03:54.280Z,12.66
2022-08-12T04:14:07.013Z,12.79
2022-08-12T04:24:15.020Z,12.90
2022-08-12T04:34:23.752Z,13.23
2022-08-12T04:44:29.791Z,13.61
2022-08-12T04:54:38.235Z,14.93
2022-08-12T05:04:47.786Z,16.25
2022-08-12T05:14:55.240Z,17.65
2022-08-12T05:25:02.929Z,18.85
2022-08-12T05:35:08.320Z,20.03
2022-08-12T05:45:15.630Z,21.08
2022-08-12T05:55:25.833Z,21.28
2022-08-12T06:15:42.777Z,21.34
2022-08-12T06:25:49.876Z,21.59
2022-08-12T06:35:59.005Z,22.32
2022-08-12T06:46:05.616Z,22.42
2022-08-12T06:56:12.778Z,22.81
2022-08-12T07:16:32.676Z,22.59
2022-08-12T07:26:45.262Z,22.97
2022-08-12T07:36:52.364Z,23.18
2022-08-12T07:46:59.461Z,23.31
2022-08-12T07:57:04.925Z,23.55
2022-08-12T08:07:14.302Z,23.37
2022-08-12T08:17:21.555Z,23.29
2022-08-12T08:27:28.782Z,23.68
2022-08-12T08:37:37.169Z,23.63
2022-08-12T08:47:43.967Z,23.40
2022-08-12T08:57:54.693Z,23.13
2022-08-12T09:08:14.156Z,23.68
2022-08-12T09:18:33.396Z,23.80
2022-08-12T09:28:41.281Z,23.81
2022-08-12T09:38:58.439Z,23.82
2022-08-12T09:49:13.447Z,24.22
2022-08-12T10:00:13.281Z,23.98
2022-08-12T10:09:57.209Z,24.17
2022-08-12T10:20:03.999Z,23.72
2022-08-12T10:30:41.932Z,23.45
2022-08-12T10:40:57.505Z,23.67
2022-08-12T10:51:56.526Z,24.18
2022-08-12T11:04:16.657Z,24.22
2022-08-12T11:12:35.905Z,24.69
2022-08-12T11:22:26.615Z,25.03
2022-08-12T11:32:38.840Z,24.87
2022-08-12T11:42:47.114Z,25.09
2022-08-12T11:52:57.167Z,25.26
2022-08-12T12:03:05.307Z,25.33
2022-08-12T12:14:05.316Z,25.72
2022-08-12T12:23:40.347Z,26.40
2022-08-12T12:33:57.366Z,26.60
2022-08-12T12:44:04.719Z,26.53
2022-08-12T12:54:13.086Z,26.64
2022-08-12T13:04:24.800Z,26.48
2022-08-12T13:14:31.502Z,26.60
2022-08-12T13:24:42.924Z,26.06
2022-08-12T13:34:51.943Z,26.29
2022-08-12T13:45:02.851Z,26.42
2022-08-12T13:55:09.738Z,25.65
2022-08-12T14:05:38.174Z,25.61
2022-08-12T14:15:48.524Z,25.37
2022-08-12T14:25:59.873Z,25.64
2022-08-12T14:36:10.199Z,25.53
2022-08-12T14:46:22.167Z,25.18
2022-08-12T14:56:58.558Z,25.26
2022-08-12T15:06:58.387Z,25.38
2022-08-12T15:17:08.509Z,25.28
2022-08-12T15:27:22.543Z,25.25
2022-08-12T15:38:08.396Z,25.22
2022-08-12T15:48:16.710Z,25.20
2022-08-12T15:58:27.398Z,25.14
2022-08-12T16:08:41.634Z,24.99
2022-08-12T16:28:56.343Z,24.67
2022-08-12T16:39:04.304Z,24.50
2022-08-12T16:49:13.836Z,24.14
2022-08-12T16:59:22.521Z,23.66
2022-08-12T17:09:39.911Z,23.34
2022-08-12T17:20:30.585Z,23.05
2022-08-12T17:30:14.701Z,22.90
2022-08-12T17:40:36.238Z,22.79
2022-08-12T17:50:46.467Z,22.57
2022-08-12T18:00:58.115Z,22.30
2022-08-12T18:12:04.614Z,21.96
2022-08-12T18:22:02.081Z,21.65
2022-08-12T18:32:35.168Z,21.47
2022-08-12T18:42:36.559Z,21.31
2022-08-12T18:52:45.301Z,21.26
2022-08-12T19:02:56.141Z,21.24
2022-08-12T19:13:23.860Z,21.16
2022-08-12T19:23:35.074Z,20.96
2022-08-12T19:33:56.129Z,20.77
2022-08-12T19:44:18.632Z,20.64
2022-08-12T19:54:30.272Z,20.60
2022-08-12T20:04:38.918Z,20.43
2022-08-12T20:14:48.303Z,20.28
2022-08-12T20:24:56.798Z,20.13
2022-08-12T20:35:10.047Z,19.81
2022-08-12T20:45:19.042Z,19.65
2022-08-12T20:55:42.042Z,19.53
2022-08-12T21:06:12.740Z,19.29
2022-08-12T21:16:31.703Z,19.10
2022-08-12T21:26:43.764Z,18.90
2022-08-12T21:37:13.293Z,18.71
2022-08-12T21:47:32.344Z,18.55
2022-08-12T21:57:50.800Z,18.31
2022-08-12T22:08:00.241Z,18.14
2022-08-12T22:28:39.071Z,17.98
2022-08-12T22:38:46.145Z,17.91
2022-08-12T22:48:54.266Z,17.86
2022-08-12T22:59:02.645Z,17.67
2022-08-12T23:09:09.945Z,17.63
2022-08-12T23:19:23.227Z,17.58
2022-08-12T23:29:42.820Z,17.64
2022-08-12T23:40:06.478Z,17.64
2022-08-12T23:50:17.001Z,17.67
